sensor_id;sensor_type;location;lat;lon;timestamp;pressure;altitude;pressure_sealevel;temperature;humidity
10167;BME280;62970;53.130;8.244;2022-08-19T00:00:34;101381.97;;;15.96;63.96
10167;BME280;62970;53.130;8.244;2022-08-19T00:03:06;101377.56;;;15.97;64.39
10167;BME280;62970;53.130;8.244;2022-08-19T00:05:35;101384.66;;;15.94;64.13
10167;BME280;62970;53.130;8.244;2022-08-19T00:08:06;101379.44;;;15.93;63.85
10167;BME280;62970;53.130;8.244;2022-08-19T00:10:35;101383.00;;;15.92;64.39
10167;BME280;62970;53.130;8.244;2022-08-19T00:13:08;101383.97;;;15.89;64.36
10167;BME280;62970;53.130;8.244;2022-08-19T00:15:37;101392.81;;;15.87;64.06
10167;BME280;62970;53.130;8.244;2022-08-19T00:18:12;101381.50;;;15.85;64.29
10167;BME280;62970;53.130;8.244;2022-08-19T00:20:41;101380.63;;;15.84;64.51
10167;BME280;62970;53.130;8.244;2022-08-19T00:23:10;101384.19;;;15.83;64.17
10167;BME280;62970;53.130;8.244;2022-08-19T00:25:42;101367.66;;;15.80;64.03
10167;BME280;62970;53.130;8.244;2022-08-19T00:28:20;101375.66;;;15.77;64.04
10167;BME280;62970;53.130;8.244;2022-08-19T00:30:50;101371.34;;;15.74;64.50
10167;BME280;62970;53.130;8.244;2022-08-19T00:33:22;101373.25;;;15.71;64.44
10167;BME280;62970;53.130;8.244;2022-08-19T00:35:55;101370.78;;;15.66;64.07
10167;BME280;62970;53.130;8.244;2022-08-19T00:38:26;101377.00;;;15.63;64.27
10167;BME280;62970;53.130;8.244;2022-08-19T00:40:55;101376.22;;;15.60;64.32
10167;BME280;62970;53.130;8.244;2022-08-19T00:43:27;101376.31;;;15.57;64.45
10167;BME280;62970;53.130;8.244;2022-08-19T00:45:57;101379.06;;;15.54;64.20
10167;BME280;62970;53.130;8.244;2022-08-19T00:48:33;101374.81;;;15.50;64.56
10167;BME280;62970;53.130;8.244;2022-08-19T00:51:05;101374.13;;;15.45;64.32
10167;BME280;62970;53.130;8.244;2022-08-19T00:53:34;101372.44;;;15.42;64.70
10167;BME280;62970;53.130;8.244;2022-08-19T00:56:04;101374.31;;;15.39;64.60
10167;BME280;62970;53.130;8.244;2022-08-19T00:58:37;101385.75;;;15.38;64.89
10167;BME280;62970;53.130;8.244;2022-08-19T01:01:08;101377.06;;;15.36;64.76
10167;BME280;62970;53.130;8.244;2022-08-19T01:03:37;101368.38;;;15.34;64.69
10167;BME280;62970;53.130;8.244;2022-08-19T01:06:07;101377.16;;;15.33;64.75
10167;BME280;62970;53.130;8.244;2022-08-19T01:08:37;101373.78;;;15.29;64.66
10167;BME280;62970;53.130;8.244;2022-08-19T01:11:07;101378.28;;;15.25;64.82
10167;BME280;62970;53.130;8.244;2022-08-19T01:13:40;101381.00;;;15.22;65.01
10167;BME280;62970;53.130;8.244;2022-08-19T01:16:11;101381.06;;;15.19;65.12
10167;BME280;62970;53.130;8.244;2022-08-19T01:18:43;101382.03;;;15.17;64.77
10167;BME280;62970;53.130;8.244;2022-08-19T01:21:19;101374.31;;;15.12;64.47
10167;BME280;62970;53.130;8.244;2022-08-19T01:23:53;101362.09;;;15.11;65.11
10167;BME280;62970;53.130;8.244;2022-08-19T01:26:25;101363.97;;;15.08;64.88
10167;BME280;62970;53.130;8.244;2022-08-19T01:28:58;101367.53;;;15.05;64.88
10167;BME280;62970;53.130;8.244;2022-08-19T01:31:29;101378.09;;;15.04;65.32
10167;BME280;62970;53.130;8.244;2022-08-19T01:34:01;101367.69;;;15.00;65.08
10167;BME280;62970;53.130;8.244;2022-08-19T01:36:36;101363.41;;;14.98;65.35
10167;BME280;62970;53.130;8.244;2022-08-19T01:39:15;101357.34;;;14.96;65.29
10167;BME280;62970;53.130;8.244;2022-08-19T01:41:45;101357.38;;;14.94;65.26
10167;BME280;62970;53.130;8.244;2022-08-19T01:44:20;101344.34;;;14.91;65.18
10167;BME280;62970;53.130;8.244;2022-08-19T01:46:51;101339.16;;;14.90;65.56
10167;BME280;62970;53.130;8.244;2022-08-19T01:49:27;101345.41;;;14.86;65.33
10167;BME280;62970;53.130;8.244;2022-08-19T01:51:56;101344.59;;;14.84;65.19
10167;BME280;62970;53.130;8.244;2022-08-19T01:54:31;101348.16;;;14.83;65.39
10167;BME280;62970;53.130;8.244;2022-08-19T01:57:07;101341.28;;;14.79;65.09
10167;BME280;62970;53.130;8.244;2022-08-19T01:59:46;101335.22;;;14.77;65.67
10167;BME280;62970;53.130;8.244;2022-08-19T02:02:18;101330.06;;;14.74;65.41
10167;BME280;62970;53.130;8.244;2022-08-19T02:04:48;101325.78;;;14.71;65.27
10167;BME280;62970;53.130;8.244;2022-08-19T02:07:19;101327.63;;;14.67;65.12
10167;BME280;62970;53.130;8.244;2022-08-19T02:09:53;101311.03;;;14.65;65.36
10167;BME280;62970;53.130;8.244;2022-08-19T02:12:23;101306.75;;;14.63;65.58
10167;BME280;62970;53.130;8.244;2022-08-19T02:14:52;101308.56;;;14.61;65.87
10167;BME280;62970;53.130;8.244;2022-08-19T02:17:22;101315.63;;;14.59;65.38
10167;BME280;62970;53.130;8.244;2022-08-19T02:19:52;101309.56;;;14.57;65.53
10167;BME280;62970;53.130;8.244;2022-08-19T02:22:22;101309.66;;;14.54;65.79
10167;BME280;62970;53.130;8.244;2022-08-19T02:24:55;101315.91;;;14.50;65.39
10167;BME280;62970;53.130;8.244;2022-08-19T02:27:25;101318.59;;;14.48;65.86
10167;BME280;62970;53.130;8.244;2022-08-19T02:29:54;101311.69;;;14.46;65.81
10167;BME280;62970;53.130;8.244;2022-08-19T02:32:23;101313.50;;;14.44;66.04
10167;BME280;62970;53.130;8.244;2022-08-19T02:34:58;101309.19;;;14.41;65.83
10167;BME280;62970;53.130;8.244;2022-08-19T02:37:30;101316.31;;;14.38;65.99
10167;BME280;62970;53.130;8.244;2022-08-19T02:40:14;101329.50;;;14.34;65.93
10167;BME280;62970;53.130;8.244;2022-08-19T02:42:44;101321.69;;;14.33;65.92
10167;BME280;62970;53.130;8.244;2022-08-19T02:45:16;101319.16;;;14.30;65.59
10167;BME280;62970;53.130;8.244;2022-08-19T02:47:46;101315.72;;;14.28;65.67
10167;BME280;62970;53.130;8.244;2022-08-19T02:50:15;101312.25;;;14.27;66.05
10167;BME280;62970;53.130;8.244;2022-08-19T02:52:45;101331.56;;;14.25;65.79
10167;BME280;62970;53.130;8.244;2022-08-19T02:55:17;101334.22;;;14.23;66.12
10167;BME280;62970;53.130;8.244;2022-08-19T02:57:49;101325.53;;;14.21;66.05
10167;BME280;62970;53.130;8.244;2022-08-19T03:00:18;101329.06;;;14.20;65.80
10167;BME280;62970;53.130;8.244;2022-08-19T03:02:47;101327.41;;;14.18;66.08
10167;BME280;62970;53.130;8.244;2022-08-19T03:05:18;101320.47;;;14.15;66.01
10167;BME280;62970;53.130;8.244;2022-08-19T03:07:50;101316.19;;;14.13;66.23
10167;BME280;62970;53.130;8.244;2022-08-19T03:10:22;101317.13;;;14.10;66.27
10167;BME280;62970;53.130;8.244;2022-08-19T03:12:51;101325.91;;;14.09;66.01
10167;BME280;62970;53.130;8.244;2022-08-19T03:15:24;101319.84;;;14.07;66.04
10167;BME280;62970;53.130;8.244;2022-08-19T03:17:53;101322.56;;;14.04;66.36
10167;BME280;62970;53.130;8.244;2022-08-19T03:20:25;101317.41;;;14.01;66.37
10167;BME280;62970;53.130;8.244;2022-08-19T03:22:55;101325.31;;;13.99;66.53
10167;BME280;62970;53.130;8.244;2022-08-19T03:25:27;101323.63;;;13.97;66.06
10167;BME280;62970;53.130;8.244;2022-08-19T03:28:00;101327.13;;;13.97;66.30
10167;BME280;62970;53.130;8.244;2022-08-19T03:30:29;101328.84;;;13.98;66.51
10167;BME280;62970;53.130;8.244;2022-08-19T03:32:58;101333.28;;;13.96;66.44
10167;BME280;62970;53.130;8.244;2022-08-19T03:35:27;101332.38;;;13.97;66.56
10167;BME280;62970;53.130;8.244;2022-08-19T03:37:58;101336.75;;;13.97;66.42
10167;BME280;62970;53.130;8.244;2022-08-19T03:40:36;101328.88;;;13.97;66.07
10167;BME280;62970;53.130;8.244;2022-08-19T03:43:08;101331.56;;;13.95;66.46
10167;BME280;62970;53.130;8.244;2022-08-19T03:45:39;101329.84;;;13.94;66.21
10167;BME280;62970;53.130;8.244;2022-08-19T03:48:08;101318.53;;;13.92;66.58
10167;BME280;62970;53.130;8.244;2022-08-19T03:50:40;101309.00;;;13.90;65.97
10167;BME280;62970;53.130;8.244;2022-08-19T03:53:09;101324.81;;;13.87;66.22
10167;BME280;62970;53.130;8.244;2022-08-19T03:55:45;101319.66;;;13.84;66.29
10167;BME280;62970;53.130;8.244;2022-08-19T03:58:14;101327.59;;;13.81;66.57
10167;BME280;62970;53.130;8.244;2022-08-19T04:00:44;101336.38;;;13.80;66.22
10167;BME280;62970;53.130;8.244;2022-08-19T04:03:13;101339.06;;;13.77;66.57
10167;BME280;62970;53.130;8.244;2022-08-19T04:05:45;101339.16;;;13.74;66.38
10167;BME280;62970;53.130;8.244;2022-08-19T04:08:17;101343.53;;;13.73;66.14
10167;BME280;62970;53.130;8.244;2022-08-19T04:10:51;101347.09;;;13.70;66.62
10167;BME280;62970;53.130;8.244;2022-08-19T04:13:20;101341.91;;;13.69;66.59
10167;BME280;62970;53.130;8.244;2022-08-19T04:15:51;101341.09;;;13.67;66.28
10167;BME280;62970;53.130;8.244;2022-08-19T04:18:20;101342.84;;;13.66;66.68
10167;BME280;62970;53.130;8.244;2022-08-19T04:20:51;101331.53;;;13.64;66.83
10167;BME280;62970;53.130;8.244;2022-08-19T04:23:20;101335.91;;;13.64;66.85
10167;BME280;62970;53.130;8.244;2022-08-19T04:25:52;101328.94;;;13.63;66.72
10167;BME280;62970;53.130;8.244;2022-08-19T04:28:25;101333.31;;;13.62;66.69
10167;BME280;62970;53.130;8.244;2022-08-19T04:30:55;101329.84;;;13.62;66.73
10167;BME280;62970;53.130;8.244;2022-08-19T04:33:25;101341.16;;;13.64;66.95
10167;BME280;62970;53.130;8.244;2022-08-19T04:35:54;101345.50;;;13.65;66.96
10167;BME280;62970;53.130;8.244;2022-08-19T04:38:24;101358.56;;;13.66;66.95
10167;BME280;62970;53.130;8.244;2022-08-19T04:40:57;101362.91;;;13.67;66.45
10167;BME280;62970;53.130;8.244;2022-08-19T04:43:39;101347.09;;;13.70;66.92
10167;BME280;62970;53.130;8.244;2022-08-19T04:46:12;101350.53;;;13.73;66.70
10167;BME280;62970;53.130;8.244;2022-08-19T04:48:43;101342.59;;;13.76;66.91
10167;BME280;62970;53.130;8.244;2022-08-19T04:51:13;101342.44;;;13.82;66.65
10167;BME280;62970;53.130;8.244;2022-08-19T04:53:44;101353.66;;;13.87;66.85
10167;BME280;62970;53.130;8.244;2022-08-19T04:56:19;101350.91;;;13.91;66.82
10167;BME280;62970;53.130;8.244;2022-08-19T04:58:55;101348.94;;;13.98;66.40
10167;BME280;62970;53.130;8.244;2022-08-19T05:01:31;101356.59;;;14.06;66.78
10167;BME280;62970;53.130;8.244;2022-08-19T05:04:05;101360.72;;;14.14;66.30
10167;BME280;62970;53.130;8.244;2022-08-19T05:06:36;101352.59;;;14.23;66.72
10167;BME280;62970;53.130;8.244;2022-08-19T05:09:05;101358.47;;;14.31;66.61
10167;BME280;62970;53.130;8.244;2022-08-19T05:11:37;101366.00;;;14.42;66.41
10167;BME280;62970;53.130;8.244;2022-08-19T05:14:08;101366.59;;;14.52;66.43
10167;BME280;62970;53.130;8.244;2022-08-19T05:16:39;101374.06;;;14.64;66.01
10167;BME280;62970;53.130;8.244;2022-08-19T05:19:08;101367.53;;;14.79;66.23
10167;BME280;62970;53.130;8.244;2022-08-19T05:21:50;101365.91;;;15.01;65.99
10167;BME280;62970;53.130;8.244;2022-08-19T05:24:32;101364.06;;;15.31;65.73
10167;BME280;62970;53.130;8.244;2022-08-19T05:27:05;101354.88;;;15.69;65.93
10167;BME280;62970;53.130;8.244;2022-08-19T05:29:35;101357.78;;;16.10;65.55
10167;BME280;62970;53.130;8.244;2022-08-19T05:32:06;101350.06;;;16.52;65.09
10167;BME280;62970;53.130;8.244;2022-08-19T05:34:38;101340.97;;;17.03;64.25
10167;BME280;62970;53.130;8.244;2022-08-19T05:37:10;101344.78;;;17.58;63.71
10167;BME280;62970;53.130;8.244;2022-08-19T05:39:42;101343.69;;;18.22;63.19
10167;BME280;62970;53.130;8.244;2022-08-19T05:44:46;101349.94;;;19.46;60.95
10167;BME280;62970;53.130;8.244;2022-08-19T05:47:18;101350.09;;;19.93;60.41
10167;BME280;62970;53.130;8.244;2022-08-19T05:49:48;101342.28;;;20.39;59.78
10167;BME280;62970;53.130;8.244;2022-08-19T05:52:19;101342.44;;;20.99;58.80
10167;BME280;62970;53.130;8.244;2022-08-19T05:54:49;101346.22;;;21.69;58.21
10167;BME280;62970;53.130;8.244;2022-08-19T05:57:24;101341.72;;;22.41;57.74
10167;BME280;62970;53.130;8.244;2022-08-19T05:59:54;101326.63;;;23.09;56.09
10167;BME280;62970;53.130;8.244;2022-08-19T06:02:26;101319.44;;;23.75;54.93
10167;BME280;62970;53.130;8.244;2022-08-19T06:04:56;101312.41;;;24.36;53.77
10167;BME280;62970;53.130;8.244;2022-08-19T06:07:25;101321.19;;;24.97;53.06
10167;BME280;62970;53.130;8.244;2022-08-19T06:09:54;101322.22;;;25.53;52.07
10167;BME280;62970;53.130;8.244;2022-08-19T06:12:27;101323.00;;;26.11;50.98
10167;BME280;62970;53.130;8.244;2022-08-19T06:15:00;101320.09;;;26.68;49.92
10167;BME280;62970;53.130;8.244;2022-08-19T06:17:30;101321.47;;;27.16;49.07
10167;BME280;62970;53.130;8.244;2022-08-19T06:20:03;101321.19;;;27.60;48.61
10167;BME280;62970;53.130;8.244;2022-08-19T06:22:38;101322.34;;;27.98;47.50
10167;BME280;62970;53.130;8.244;2022-08-19T06:25:10;101314.44;;;28.37;46.81
10167;BME280;62970;53.130;8.244;2022-08-19T06:27:43;101320.72;;;28.76;45.83
10167;BME280;62970;53.130;8.244;2022-08-19T06:30:13;101317.72;;;29.17;45.00
10167;BME280;62970;53.130;8.244;2022-08-19T06:32:42;101324.88;;;29.55;43.67
10167;BME280;62970;53.130;8.244;2022-08-19T06:35:11;101324.72;;;29.94;43.27
10167;BME280;62970;53.130;8.244;2022-08-19T06:37:41;101329.50;;;30.28;42.25
10167;BME280;62970;53.130;8.244;2022-08-19T06:40:11;101335.25;;;30.60;41.81
10167;BME280;62970;53.130;8.244;2022-08-19T06:42:44;101330.38;;;30.91;41.21
10167;BME280;62970;53.130;8.244;2022-08-19T06:45:14;101332.66;;;31.04;40.00
10167;BME280;62970;53.130;8.244;2022-08-19T06:47:43;101329.13;;;31.03;39.86
10167;BME280;62970;53.130;8.244;2022-08-19T06:50:14;101332.13;;;31.00;39.13
10167;BME280;62970;53.130;8.244;2022-08-19T06:52:43;101336.56;;;31.09;39.16
10167;BME280;62970;53.130;8.244;2022-08-19T06:55:13;101336.16;;;31.22;38.22
10167;BME280;62970;53.130;8.244;2022-08-19T06:57:45;101342.75;;;31.45;38.61
10167;BME280;62970;53.130;8.244;2022-08-19T07:00:17;101341.03;;;31.70;37.43
10167;BME280;62970;53.130;8.244;2022-08-19T07:02:46;101339.69;;;32.00;37.14
10167;BME280;62970;53.130;8.244;2022-08-19T07:05:15;101341.13;;;32.21;36.05
10167;BME280;62970;53.130;8.244;2022-08-19T07:07:45;101343.56;;;32.40;35.96
10167;BME280;62970;53.130;8.244;2022-08-19T07:10:14;101344.56;;;32.47;35.56
10167;BME280;62970;53.130;8.244;2022-08-19T07:12:46;101344.94;;;32.52;35.89
10167;BME280;62970;53.130;8.244;2022-08-19T07:15:17;101347.81;;;32.75;35.26
10167;BME280;62970;53.130;8.244;2022-08-19T07:17:47;101346.69;;;33.02;34.58
10167;BME280;62970;53.130;8.244;2022-08-19T07:20:17;101355.59;;;33.27;34.02
10167;BME280;62970;53.130;8.244;2022-08-19T07:22:47;101353.13;;;33.42;33.90
10167;BME280;62970;53.130;8.244;2022-08-19T07:25:17;101355.94;;;33.64;33.21
10167;BME280;62970;53.130;8.244;2022-08-19T07:27:51;101360.13;;;33.83;33.51
10167;BME280;62970;53.130;8.244;2022-08-19T07:30:21;101367.66;;;34.04;32.50
10167;BME280;62970;53.130;8.244;2022-08-19T07:32:51;101365.19;;;34.25;32.59
10167;BME280;62970;53.130;8.244;2022-08-19T07:35:22;101370.03;;;34.38;31.91
10167;BME280;62970;53.130;8.244;2022-08-19T07:37:52;101377.56;;;34.51;31.99
10167;BME280;62970;53.130;8.244;2022-08-19T07:40:21;101375.72;;;34.51;31.66
10167;BME280;62970;53.130;8.244;2022-08-19T07:42:53;101373.91;;;34.44;31.05
10167;BME280;62970;53.130;8.244;2022-08-19T07:45:22;101382.69;;;34.46;30.49
10167;BME280;62970;53.130;8.244;2022-08-19T07:47:53;101382.97;;;34.51;31.06
10167;BME280;62970;53.130;8.244;2022-08-19T07:50:22;101390.38;;;34.57;30.26
10167;BME280;62970;53.130;8.244;2022-08-19T07:52:51;101396.16;;;34.54;30.20
10167;BME280;62970;53.130;8.244;2022-08-19T07:55:25;101391.78;;;34.53;30.19
10167;BME280;62970;53.130;8.244;2022-08-19T07:57:57;101393.78;;;34.28;29.97
10167;BME280;62970;53.130;8.244;2022-08-19T08:00:27;101397.44;;;33.96;29.44
10167;BME280;62970;53.130;8.244;2022-08-19T08:02:56;101392.94;;;33.56;30.15
10167;BME280;62970;53.130;8.244;2022-08-19T08:05:25;101396.47;;;33.40;30.07
10167;BME280;62970;53.130;8.244;2022-08-19T08:08:07;101396.00;;;33.45;30.25
10167;BME280;62970;53.130;8.244;2022-08-19T08:10:49;101397.69;;;33.54;29.77
10167;BME280;62970;53.130;8.244;2022-08-19T08:13:21;101395.97;;;33.61;29.83
10167;BME280;62970;53.130;8.244;2022-08-19T08:15:51;101397.16;;;33.66;29.15
10167;BME280;62970;53.130;8.244;2022-08-19T08:18:20;101392.09;;;33.55;28.50
10167;BME280;62970;53.130;8.244;2022-08-19T08:20:50;101411.81;;;33.07;28.76
10167;BME280;62970;53.130;8.244;2022-08-19T08:23:19;101402.66;;;32.25;29.55
10167;BME280;62970;53.130;8.244;2022-08-19T08:25:53;101419.63;;;31.22;30.04
10167;BME280;62970;53.130;8.244;2022-08-19T08:28:26;101422.81;;;30.17;31.25
10167;BME280;62970;53.130;8.244;2022-08-19T08:30:57;101419.75;;;29.37;31.74
10167;BME280;62970;53.130;8.244;2022-08-19T08:33:28;101425.28;;;28.66;32.71
10167;BME280;62970;53.130;8.244;2022-08-19T08:35:58;101423.44;;;27.96;32.92
10167;BME280;62970;53.130;8.244;2022-08-19T08:38:27;101428.41;;;27.38;34.09
10167;BME280;62970;53.130;8.244;2022-08-19T08:41:05;101427.31;;;26.97;34.90
10167;BME280;62970;53.130;8.244;2022-08-19T08:43:44;101430.31;;;26.72;35.79
10167;BME280;62970;53.130;8.244;2022-08-19T08:46:18;101436.31;;;26.53;35.89
10167;BME280;62970;53.130;8.244;2022-08-19T08:48:53;101430.94;;;26.31;36.05
10167;BME280;62970;53.130;8.244;2022-08-19T08:51:29;101433.50;;;26.10;36.14
10167;BME280;62970;53.130;8.244;2022-08-19T08:54:07;101437.56;;;25.80;36.74
10167;BME280;62970;53.130;8.244;2022-08-19T08:56:40;101430.44;;;25.57;36.92
10167;BME280;62970;53.130;8.244;2022-08-19T08:59:20;101439.28;;;25.46;37.30
10167;BME280;62970;53.130;8.244;2022-08-19T09:01:50;101423.22;;;25.35;37.52
10167;BME280;62970;53.130;8.244;2022-08-19T09:04:20;101429.69;;;25.20;36.95
10167;BME280;62970;53.130;8.244;2022-08-19T09:06:56;101428.38;;;25.02;37.33
10167;BME280;62970;53.130;8.244;2022-08-19T09:09:34;101431.44;;;24.84;37.81
10167;BME280;62970;53.130;8.244;2022-08-19T09:12:14;101429.69;;;24.72;37.78
10167;BME280;62970;53.130;8.244;2022-08-19T09:14:53;101433.13;;;24.62;38.16
10167;BME280;62970;53.130;8.244;2022-08-19T09:17:27;101421.50;;;24.50;38.23
10167;BME280;62970;53.130;8.244;2022-08-19T09:20:04;101420.56;;;24.38;38.24
10167;BME280;62970;53.130;8.244;2022-08-19T09:22:35;101417.09;;;24.25;38.64
10167;BME280;62970;53.130;8.244;2022-08-19T09:25:08;101420.28;;;24.17;38.96
10167;BME280;62970;53.130;8.244;2022-08-19T09:27:40;101422.53;;;24.11;38.89
10167;BME280;62970;53.130;8.244;2022-08-19T09:30:16;101423.81;;;24.05;39.17
10167;BME280;62970;53.130;8.244;2022-08-19T09:32:48;101430.22;;;24.03;38.98
10167;BME280;62970;53.130;8.244;2022-08-19T09:35:20;101424.34;;;23.98;39.63
10167;BME280;62970;53.130;8.244;2022-08-19T09:37:52;101424.00;;;23.89;39.04
10167;BME280;62970;53.130;8.244;2022-08-19T09:40:22;101425.59;;;23.79;39.59
10167;BME280;62970;53.130;8.244;2022-08-19T09:42:52;101421.88;;;23.69;39.44
10167;BME280;62970;53.130;8.244;2022-08-19T09:48:07;101409.91;;;23.49;40.05
10167;BME280;62970;53.130;8.244;2022-08-19T09:50:36;101418.31;;;23.43;40.22
10167;BME280;62970;53.130;8.244;2022-08-19T09:53:05;101413.41;;;23.37;40.23
10167;BME280;62970;53.130;8.244;2022-08-19T19:53:50;101355.50;;;21.62;46.07
10167;BME280;62970;53.130;8.244;2022-08-19T19:56:21;101358.34;;;21.59;46.82
10167;BME280;62970;53.130;8.244;2022-08-19T19:58:51;101350.56;;;21.56;47.92
10167;BME280;62970;53.130;8.244;2022-08-19T20:01:22;101360.41;;;21.54;47.65
10167;BME280;62970;53.130;8.244;2022-08-19T20:03:53;101364.28;;;21.48;48.30
10167;BME280;62970;53.130;8.244;2022-08-19T20:06:23;101364.47;;;21.45;48.73
10167;BME280;62970;53.130;8.244;2022-08-19T20:08:56;101365.69;;;21.40;49.08
10167;BME280;62970;53.130;8.244;2022-08-19T20:11:45;101365.13;;;21.34;49.13
10167;BME280;62970;53.130;8.244;2022-08-19T20:14:23;101369.00;;;21.29;49.47
10167;BME280;62970;53.130;8.244;2022-08-19T20:16:54;101367.44;;;21.25;49.78
10167;BME280;62970;53.130;8.244;2022-08-19T20:19:29;101368.66;;;21.19;50.11
10167;BME280;62970;53.130;8.244;2022-08-19T20:22:04;101374.97;;;21.17;50.12
10167;BME280;62970;53.130;8.244;2022-08-19T20:24:36;101369.09;;;21.12;50.37
10167;BME280;62970;53.130;8.244;2022-08-19T20:27:07;101365.78;;;21.08;50.96
10167;BME280;62970;53.130;8.244;2022-08-19T20:29:42;101369.53;;;21.04;50.92
10167;BME280;62970;53.130;8.244;2022-08-19T20:32:11;101363.66;;;20.99;51.09
10167;BME280;62970;53.130;8.244;2022-08-19T20:34:40;101366.56;;;20.94;51.42
10167;BME280;62970;53.130;8.244;2022-08-19T20:37:13;101378.19;;;20.92;51.61
10167;BME280;62970;53.130;8.244;2022-08-19T20:39:48;101372.31;;;20.87;51.38
10167;BME280;62970;53.130;8.244;2022-08-19T20:42:17;101376.00;;;20.84;51.53
10167;BME280;62970;53.130;8.244;2022-08-19T20:44:46;101380.69;;;20.79;51.56
10167;BME280;62970;53.130;8.244;2022-08-19T20:47:16;101384.38;;;20.77;51.76
10167;BME280;62970;53.130;8.244;2022-08-19T20:49:47;101386.34;;;20.73;52.10
10167;BME280;62970;53.130;8.244;2022-08-19T20:52:16;101386.59;;;20.68;51.85
10167;BME280;62970;53.130;8.244;2022-08-19T20:54:48;101400.09;;;20.64;51.71
10167;BME280;62970;53.130;8.244;2022-08-19T20:57:18;101403.78;;;20.61;51.79
10167;BME280;62970;53.130;8.244;2022-08-19T20:59:47;101419.84;;;20.58;51.57
10167;BME280;62970;53.130;8.244;2022-08-19T21:02:16;101414.72;;;20.55;51.59
10167;BME280;62970;53.130;8.244;2022-08-19T21:04:46;101419.16;;;20.55;51.56
10167;BME280;62970;53.130;8.244;2022-08-19T21:07:16;101427.03;;;20.56;51.91
10167;BME280;62970;53.130;8.244;2022-08-19T21:09:48;101432.06;;;20.61;52.22
10167;BME280;62970;53.130;8.244;2022-08-19T21:12:18;101429.16;;;20.65;52.10
10167;BME280;62970;53.130;8.244;2022-08-19T21:14:47;101439.41;;;20.71;51.94
10167;BME280;62970;53.130;8.244;2022-08-19T21:17:16;101437.53;;;20.73;51.94
10167;BME280;62970;53.130;8.244;2022-08-19T21:19:46;101440.09;;;20.75;51.99
10167;BME280;62970;53.130;8.244;2022-08-19T21:22:17;101444.38;;;20.78;52.06
10167;BME280;62970;53.130;8.244;2022-08-19T21:24:49;101440.78;;;20.79;52.43
10167;BME280;62970;53.130;8.244;2022-08-19T21:27:18;101446.84;;;20.81;52.42
10167;BME280;62970;53.130;8.244;2022-08-19T21:29:47;101443.25;;;20.82;52.03
10167;BME280;62970;53.130;8.244;2022-08-19T21:32:18;101452.00;;;20.84;52.54
10167;BME280;62970;53.130;8.244;2022-08-19T21:34:48;101442.25;;;20.84;52.19
10167;BME280;62970;53.130;8.244;2022-08-19T21:37:17;101438.56;;;20.87;52.48
10167;BME280;62970;53.130;8.244;2022-08-19T21:39:50;101444.81;;;20.86;52.38
10167;BME280;62970;53.130;8.244;2022-08-19T21:42:19;101449.06;;;20.88;52.13
10167;BME280;62970;53.130;8.244;2022-08-19T21:44:49;101451.63;;;20.90;52.32
10167;BME280;62970;53.130;8.244;2022-08-19T21:47:18;101449.00;;;20.90;51.94
10167;BME280;62970;53.130;8.244;2022-08-19T21:49:48;101450.63;;;20.92;52.39
10167;BME280;62970;53.130;8.244;2022-08-19T21:52:22;101447.09;;;20.92;52.17
10167;BME280;62970;53.130;8.244;2022-08-19T21:54:55;101447.88;;;20.94;51.75
10167;BME280;62970;53.130;8.244;2022-08-19T21:57:25;101443.44;;;20.94;51.43
10167;BME280;62970;53.130;8.244;2022-08-19T21:59:54;101435.47;;;20.94;51.88
10167;BME280;62970;53.130;8.244;2022-08-19T22:02:24;101434.63;;;20.94;51.60
10167;BME280;62970;53.130;8.244;2022-08-19T22:04:53;101436.50;;;20.92;51.32
10167;BME280;62970;53.130;8.244;2022-08-19T22:07:22;101441.03;;;20.90;51.25
10167;BME280;62970;53.130;8.244;2022-08-19T22:09:55;101447.28;;;20.89;51.54
10167;BME280;62970;53.130;8.244;2022-08-19T22:12:28;101444.72;;;20.87;51.31
10167;BME280;62970;53.130;8.244;2022-08-19T22:14:59;101441.13;;;20.88;51.40
10167;BME280;62970;53.130;8.244;2022-08-19T22:17:28;101442.94;;;20.88;51.60
10167;BME280;62970;53.130;8.244;2022-08-19T22:19:58;101440.28;;;20.88;51.57
10167;BME280;62970;53.130;8.244;2022-08-19T22:22:30;101443.00;;;20.86;51.28
10167;BME280;62970;53.130;8.244;2022-08-19T22:25:12;101446.44;;;20.88;51.41
10167;BME280;62970;53.130;8.244;2022-08-19T22:27:42;101443.78;;;20.88;51.45
10167;BME280;62970;53.130;8.244;2022-08-19T22:30:17;101448.22;;;20.88;51.21
10167;BME280;62970;53.130;8.244;2022-08-19T22:32:48;101439.41;;;20.87;51.22
10167;BME280;62970;53.130;8.244;2022-08-19T22:35:22;101438.47;;;20.88;51.48
10167;BME280;62970;53.130;8.244;2022-08-19T22:37:53;101442.06;;;20.87;51.68
10167;BME280;62970;53.130;8.244;2022-08-19T22:40:28;101437.72;;;20.86;51.13
10167;BME280;62970;53.130;8.244;2022-08-19T22:42:59;101448.22;;;20.88;51.79
10167;BME280;62970;53.130;8.244;2022-08-19T22:45:30;101448.31;;;20.86;51.83
10167;BME280;62970;53.130;8.244;2022-08-19T22:48:02;101446.50;;;20.87;51.58
10167;BME280;62970;53.130;8.244;2022-08-19T22:50:32;101453.59;;;20.86;53.40
10167;BME280;62970;53.130;8.244;2022-08-19T22:53:02;101455.56;;;20.83;54.45
10167;BME280;62970;53.130;8.244;2022-08-19T22:55:33;101459.50;;;20.76;55.80
10167;BME280;62970;53.130;8.244;2022-08-19T22:58:03;101462.84;;;20.63;56.84
10167;BME280;62970;53.130;8.244;2022-08-19T23:00:34;101462.53;;;20.52;57.71
10167;BME280;62970;53.130;8.244;2022-08-19T23:03:03;101470.25;;;20.39;58.04
10167;BME280;62970;53.130;8.244;2022-08-19T23:05:33;101469.97;;;20.28;58.80
10167;BME280;62970;53.130;8.244;2022-08-19T23:08:03;101470.47;;;20.19;58.57
10167;BME280;62970;53.130;8.244;2022-08-19T23:10:35;101472.56;;;20.13;58.92
10167;BME280;62970;53.130;8.244;2022-08-19T23:13:04;101471.97;;;20.07;59.37
10167;BME280;62970;53.130;8.244;2022-08-19T23:15:34;101464.34;;;20.01;59.85